Time;durP1;ratioP1;P1;durP2;ratioP2;P2;SDS_P1;SDS_P2;PMS_P1;PMS_P2;Temp;Humidity;BMP_temperature;BMP_pressure;BME280_temperature;BME280_humidity;BME280_pressure;Samples;Min_cycle;Max_cycle;Signal;HPM_P1;HPM_P2
2022/08/07 00:00:59;;;;;;;3.25;1.98;;;26.00;97.40;;;;;;5075428;28;20035;-51
2022/08/07 00:03:25;;;;;;;3.45;2.10;;;26.00;97.50;;;;;;5111291;28;20051;-51
2022/08/07 00:05:52;;;;;;;7.78;2.00;;;26.00;97.70;;;;;;5111889;28;20031;-55
2022/08/07 00:08:21;;;;;;;4.47;2.05;;;25.90;97.90;;;;;;5111271;28;20034;-53
2022/08/07 00:10:51;;;;;;;8.52;3.35;;;25.90;97.80;;;;;;5092870;28;20390;-50
2022/08/07 00:13:18;;;;;;;4.40;2.28;;;25.90;98.00;;;;;;5108059;28;20057;-57
2022/08/07 00:15:44;;;;;;;2.65;2.15;;;25.80;98.10;;;;;;5111245;28;20542;-54
2022/08/07 00:18:10;;;;;;;3.60;2.03;;;25.80;98.10;;;;;;5092126;28;20038;-54
2022/08/07 00:20:37;;;;;;;4.45;2.00;;;25.70;98.40;;;;;;5111905;28;20098;-54
2022/08/07 00:23:05;;;;;;;4.15;2.05;;;25.70;98.60;;;;;;5111228;28;20024;-55
2022/08/07 00:25:32;;;;;;;4.80;2.17;;;25.70;98.70;;;;;;5111727;28;20543;-50
2022/08/07 00:27:58;;;;;;;3.78;1.98;;;25.70;99.10;;;;;;5086483;28;20034;-52
2022/08/07 00:30:24;;;;;;;4.72;2.10;;;25.70;99.40;;;;;;5111411;28;20024;-50
2022/08/07 00:32:50;;;;;;;4.22;2.80;;;25.60;99.90;;;;;;5113843;28;20032;-51
2022/08/07 00:35:20;;;;;;;6.40;3.67;;;25.60;99.90;;;;;;5114560;28;20509;-53
2022/08/07 00:37:46;;;;;;;4.43;1.95;;;25.60;99.90;;;;;;5115261;28;20024;-56
2022/08/07 00:40:13;;;;;;;4.65;1.50;;;25.50;99.90;;;;;;5114698;28;20093;-52
2022/08/07 00:42:40;;;;;;;1.95;1.48;;;25.40;99.90;;;;;;5114760;28;20031;-54
2022/08/07 00:45:07;;;;;;;4.78;1.30;;;25.40;99.90;;;;;;5114786;28;20044;-51
2022/08/07 00:47:33;;;;;;;5.82;1.25;;;25.30;99.90;;;;;;5073201;28;20043;-51
2022/08/07 00:49:59;;;;;;;5.82;1.30;;;25.20;99.90;;;;;;5115205;28;20032;-50
2022/08/07 00:52:25;;;;;;;1.63;0.98;;;25.20;99.90;;;;;;5114407;28;20028;-51
2022/08/07 00:54:51;;;;;;;3.38;0.93;;;25.10;99.90;;;;;;5114365;28;20089;-57
2022/08/07 00:57:17;;;;;;;5.43;1.20;;;25.00;99.90;;;;;;5115119;28;20024;-53
2022/08/07 00:59:43;;;;;;;3.75;1.02;;;;;;;;;;5114200;28;20108;-53
2022/08/07 01:02:10;;;;;;;3.20;1.63;;;24.90;99.90;;;;;;5114074;28;20074;-55
2022/08/07 01:04:37;;;;;;;2.55;1.10;;;25.00;99.90;;;;;;5114132;28;20058;-53
2022/08/07 01:07:04;;;;;;;2.17;1.00;;;25.00;99.90;;;;;;5114748;28;20475;-56
2022/08/07 01:09:31;;;;;;;4.00;1.20;;;;;;;;;;5114525;28;20027;-53
2022/08/07 01:11:57;;;;;;;3.45;1.17;;;24.80;99.90;;;;;;5077919;28;20494;-50
2022/08/07 01:14:24;;;;;;;3.35;1.27;;;24.80;99.90;;;;;;5113980;28;20027;-54
2022/08/07 01:16:51;;;;;;;3.17;0.90;;;;;;;;;;5113918;28;20038;-53
2022/08/07 01:19:18;;;;;;;1.67;1.25;;;24.70;99.90;;;;;;5113897;28;20420;-53
2022/08/07 01:21:45;;;;;;;4.78;1.15;;;24.60;99.90;;;;;;5109015;28;20053;-53
2022/08/07 01:24:11;;;;;;;4.90;1.20;;;;;;;;;;5113928;28;20044;-53
2022/08/07 01:26:37;;;;;;;3.75;1.30;;;24.50;99.90;;;;;;5113882;28;20028;-52
2022/08/07 01:29:03;;;;;;;3.15;1.20;;;24.50;99.90;;;;;;5114253;28;20027;-54
2022/08/07 01:31:32;;;;;;;1.85;1.00;;;24.40;99.90;;;;;;5114013;28;20035;-54
2022/08/07 01:33:59;;;;;;;2.60;1.10;;;24.40;99.90;;;;;;5113685;28;20075;-53
2022/08/07 01:36:26;;;;;;;2.75;1.00;;;24.40;99.90;;;;;;5077876;28;20043;-54
2022/08/07 01:38:52;;;;;;;3.25;1.35;;;24.30;99.90;;;;;;5113328;28;20024;-54
2022/08/07 01:41:19;;;;;;;4.57;1.48;;;24.40;99.90;;;;;;5113141;28;20560;-56
2022/08/07 01:43:46;;;;;;;3.72;1.48;;;24.20;99.90;;;;;;5113375;28;20118;-51
2022/08/07 01:46:12;;;;;;;4.20;1.30;;;;;;;;;;5110540;28;20034;-53
2022/08/07 01:48:41;;;;;;;2.47;1.08;;;23.50;99.90;;;;;;5113934;28;20027;-51
2022/08/07 01:51:08;;;;;;;1.88;1.30;;;;;;;;;;5113890;28;20089;-55
2022/08/07 01:53:38;;;;;;;3.45;1.00;;;24.10;99.90;;;;;;5112954;28;20380;-50
2022/08/07 01:56:09;;;;;;;2.47;1.23;;;;;;;;;;5113140;28;20039;-54
2022/08/07 01:58:38;;;;;;;;;;;24.10;99.90;;;;;;5113481;28;20043;-52
2022/08/07 02:01:14;;;;;;;3.17;0.98;;;23.80;99.90;;;;;;5113490;28;19904;-53
2022/08/07 02:03:49;;;;;;;2.45;1.17;;;24.00;99.90;;;;;;5113414;28;20028;-52
2022/08/07 02:06:20;;;;;;;4.00;1.50;;;23.80;99.90;;;;;;5113041;28;20084;-58
2022/08/07 02:08:48;;;;;;;4.25;1.00;;;23.70;99.90;;;;;;5113028;28;20032;-55
2022/08/07 02:11:14;;;;;;;2.90;1.15;;;23.70;99.90;;;;;;5112994;28;20518;-54
2022/08/07 02:13:43;;;;;;;1.77;1.10;;;23.80;99.90;;;;;;5113411;28;20038;-54
2022/08/07 02:16:10;;;;;;;5.65;1.33;;;23.80;99.90;;;;;;5113349;28;20027;-52
2022/08/07 02:18:38;;;;;;;2.35;1.30;;;;;;;;;;5071200;28;20122;-53
2022/08/07 02:21:06;;;;;;;3.33;1.02;;;23.70;99.90;;;;;;5112534;28;20035;-52
2022/08/07 02:23:36;;;;;;;2.72;1.20;;;23.70;99.90;;;;;;5095001;28;20039;-52
2022/08/07 02:26:04;;;;;;;2.42;1.20;;;23.70;99.90;;;;;;5112443;28;20028;-56
2022/08/07 02:28:32;;;;;;;6.22;1.20;;;23.60;99.90;;;;;;5112443;28;20034;-51
2022/08/07 02:31:00;;;;;;;2.05;1.38;;;23.60;99.90;;;;;;5094628;28;20031;-53
2022/08/07 02:33:27;;;;;;;2.90;1.23;;;23.50;99.90;;;;;;5111889;28;20450;-53
2022/08/07 02:35:54;;;;;;;2.05;1.10;;;23.60;99.90;;;;;;5112449;28;20036;-55
2022/08/07 02:38:25;;;;;;;2.85;1.15;;;23.50;99.90;;;;;;5113529;28;20058;-54
2022/08/07 02:40:51;;;;;;;1.52;1.20;;;23.40;99.90;;;;;;5112712;28;20024;-50
2022/08/07 02:43:17;;;;;;;2.47;1.40;;;;;;;;;;5112111;28;20027;-55
2022/08/07 02:45:46;;;;;;;2.75;1.58;;;23.40;99.90;;;;;;5112081;28;20486;-56
2022/08/07 02:48:12;;;;;;;3.63;1.67;;;23.30;99.90;;;;;;5076848;28;20027;-53
2022/08/07 02:50:44;;;;;;;2.55;1.30;;;23.30;99.90;;;;;;5112126;28;20105;-57
2022/08/07 02:53:32;;;;;;;1.98;1.30;;;23.30;99.90;;;;;;5111953;28;20061;-55
2022/08/07 02:56:00;;;;;;;2.25;1.27;;;23.30;99.90;;;;;;5106584;28;20069;-52
2022/08/07 02:58:28;;;;;;;2.17;1.40;;;23.20;99.90;;;;;;5113177;28;20059;-54
2022/08/07 03:00:56;;;;;;;2.95;1.30;;;23.20;99.90;;;;;;5075648;28;20040;-54
2022/08/07 03:03:23;;;;;;;1.70;1.30;;;;;;;;;;5111877;28;20042;-52
2022/08/07 03:05:53;;;;;;;1.73;1.20;;;23.30;99.90;;;;;;5111835;28;20118;-57
2022/08/07 03:08:20;;;;;;;3.55;1.35;;;23.20;99.90;;;;;;5075778;28;20075;-55
2022/08/07 03:10:47;;;;;;;2.97;1.45;;;23.20;99.90;;;;;;5092675;28;20044;-52
2022/08/07 03:13:14;;;;;;;2.13;1.15;;;23.10;99.90;;;;;;5112855;28;20020;-54
2022/08/07 03:15:41;;;;;;;1.92;1.33;;;23.10;99.90;;;;;;5068814;28;20416;-52
2022/08/07 03:18:07;;;;;;;6.40;1.42;;;23.10;99.90;;;;;;5068953;28;20040;-50
2022/08/07 03:20:34;;;;;;;3.03;1.20;;;23.10;99.90;;;;;;5068323;28;20063;-57
2022/08/07 03:23:01;;;;;;;4.22;1.50;;;23.10;99.90;;;;;;5068576;28;20095;-53
2022/08/07 03:25:28;;;;;;;2.80;1.52;;;23.10;99.90;;;;;;5068708;28;20053;-53
2022/08/07 03:27:56;;;;;;;7.97;1.58;;;23.00;99.90;;;;;;5069590;28;20029;-55
2022/08/07 03:30:23;;;;;;;3.15;1.40;;;23.00;99.90;;;;;;5035124;28;20524;-55
2022/08/07 03:32:52;;;;;;;3.60;1.42;;;23.00;99.90;;;;;;5068819;28;20032;-53
2022/08/07 03:35:22;;;;;;;3.00;1.60;;;22.90;99.90;;;;;;5074479;28;20068;-52
2022/08/07 03:37:55;;;;;;;3.13;1.33;;;;;;;;;;5071522;28;20071;-53
2022/08/07 03:40:22;;;;;;;2.05;1.42;;;;;;;;;;5067653;28;20044;-56
2022/08/07 03:42:49;;;;;;;4.05;1.60;;;;;;;;;;5078272;28;20119;-52
2022/08/07 03:45:16;;;;;;;2.78;1.48;;;;;;;;;;5071796;28;20170;-50
2022/08/07 03:47:43;;;;;;;6.78;1.70;;;;;;;;;;5099990;28;20058;-53
2022/08/07 03:50:09;;;;;;;2.00;1.27;;;;;;;;;;5030240;28;20040;-51
2022/08/07 03:52:36;;;;;;;3.60;2.30;;;;;;;;;;5100775;28;20112;-56
2022/08/07 03:55:02;;;;;;;2.85;1.45;;;;;;;;;;5099076;28;20083;-57
2022/08/07 03:57:30;;;;;;;1.80;1.60;;;;;;;;;;5094713;28;20036;-56
2022/08/07 03:59:57;;;;;;;2.50;1.52;;;;;;;;;;5099158;28;20066;-52
2022/08/07 04:17:47;;;;;;;5.05;1.67;;;22.70;99.90;;;;;;5163647;27;20378;-49
2022/08/07 04:20:13;;;;;;;3.45;1.45;;;22.90;99.90;;;;;;5135220;27;20031;-50
2022/08/07 04:22:40;;;;;;;3.38;1.55;;;22.90;99.90;;;;;;5106224;27;20043;-49
2022/08/07 04:25:08;;;;;;;3.17;1.52;;;22.90;99.90;;;;;;5145802;27;20087;-48
2022/08/07 04:27:34;;;;;;;2.28;1.65;;;22.90;99.90;;;;;;5134941;27;20027;-49
2022/08/07 04:30:00;;;;;;;4.38;1.63;;;22.80;99.90;;;;;;5091023;27;20363;-47
2022/08/07 04:32:26;;;;;;;3.03;1.60;;;22.80;99.90;;;;;;5137748;27;20031;-49
2022/08/07 04:34:54;;;;;;;3.10;1.63;;;22.80;99.90;;;;;;5128662;27;20382;-51
2022/08/07 04:37:20;;;;;;;1.92;1.60;;;22.90;99.90;;;;;;5137251;27;20536;-50
2022/08/07 04:39:45;;;;;;;1.98;1.67;;;22.80;99.90;;;;;;5133195;27;20023;-49
2022/08/07 04:42:11;;;;;;;2.10;1.52;;;22.80;99.90;;;;;;5131038;27;20078;-50
2022/08/07 04:44:38;;;;;;;1.60;1.40;;;22.80;99.90;;;;;;5087947;27;20046;-51
2022/08/07 04:47:10;;;;;;;4.35;1.92;;;22.70;99.90;;;;;;5138760;27;20116;-51
2022/08/07 04:49:47;;;;;;;2.78;1.70;;;22.80;99.90;;;;;;5136842;27;20450;-52
2022/08/07 04:52:34;;;;;;;4.95;1.88;;;22.90;99.90;;;;;;5138883;27;20036;-51
2022/08/07 04:55:25;;;;;;;2.60;1.55;;;22.90;99.90;;;;;;5132391;27;20023;-53
2022/08/07 06:15:27;;;;;;;2.38;2.13;;;23.60;99.90;;;;;;5089323;27;20400;-50
2022/08/07 06:17:54;;;;;;;4.53;2.05;;;24.30;99.90;;;;;;5068617;28;20430;-48
2022/08/07 06:20:21;;;;;;;3.25;2.08;;;24.50;99.90;;;;;;5074092;28;20496;-50
2022/08/07 06:22:48;;;;;;;3.10;2.28;;;24.50;99.90;;;;;;5074028;28;20072;-50
2022/08/07 06:25:14;;;;;;;6.40;2.50;;;24.60;99.90;;;;;;5071892;28;20052;-50
2022/08/07 06:27:40;;;;;;;4.47;2.40;;;24.60;99.90;;;;;;5077391;28;20503;-50
2022/08/07 06:30:06;;;;;;;5.93;2.78;;;24.70;99.90;;;;;;5071397;28;20086;-49
2022/08/07 06:32:32;;;;;;;2.85;2.10;;;24.70;99.90;;;;;;5057678;28;20537;-51
2022/08/07 06:35:01;;;;;;;4.75;2.38;;;24.80;99.90;;;;;;5073949;28;20028;-50
2022/08/07 06:37:26;;;;;;;2.38;2.00;;;25.00;99.90;;;;;;5031153;28;20072;-49
2022/08/07 06:39:52;;;;;;;5.45;2.58;;;25.00;99.90;;;;;;5074223;28;20052;-48
2022/08/07 06:42:25;;;;;;;3.90;2.15;;;25.00;99.90;;;;;;5070969;28;20088;-51
2022/08/07 06:44:53;;;;;;;3.25;1.92;;;25.20;99.90;;;;;;5082412;28;20066;-49
2022/08/07 06:47:18;;;;;;;2.95;2.28;;;25.10;99.90;;;;;;5071929;28;20079;-49
2022/08/07 06:49:44;;;;;;;4.05;2.53;;;25.00;99.90;;;;;;5072055;28;20056;-50
2022/08/07 06:52:13;;;;;;;3.90;2.67;;;25.10;99.90;;;;;;5074635;28;20063;-49
2022/08/07 06:54:40;;;;;;;3.83;2.22;;;25.10;99.90;;;;;;5074050;28;20028;-51
2022/08/07 06:57:08;;;;;;;3.10;2.20;;;;;;;;;;5078927;28;20033;-49
2022/08/07 06:59:39;;;;;;;3.47;2.15;;;;;;;;;;5080082;28;20103;-49
2022/08/07 07:02:05;;;;;;;;;;;;;;;;;;5089300;28;20036;-49
2022/08/07 07:04:32;;;;;;;3.90;2.30;;;;;;;;;;5073299;28;19923;-49
2022/08/07 07:06:58;;;;;;;5.55;2.30;;;25.70;99.90;;;;;;5070334;28;20103;-48
2022/08/07 07:09:26;;;;;;;4.03;2.30;;;25.80;99.90;;;;;;5080224;28;20028;-50
2022/08/07 07:11:52;;;;;;;5.47;3.03;;;;;;;;;;5067174;28;20082;-52
2022/08/07 07:14:20;;;;;;;3.90;2.35;;;25.90;99.90;;;;;;5067650;28;20073;-50
2022/08/07 07:16:47;;;;;;;3.05;2.47;;;;;;;;;;5054875;28;20021;-51
2022/08/07 07:19:16;;;;;;;4.70;2.33;;;26.20;99.90;;;;;;5052893;28;20032;-51
2022/08/07 07:21:43;;;;;;;4.47;2.40;;;;;;;;;;5052098;28;20029;-50
2022/08/07 07:24:09;;;;;;;2.70;2.38;;;26.40;99.90;;;;;;5054737;28;20043;-51
2022/08/07 07:26:38;;;;;;;2.92;2.38;;;26.50;99.90;;;;;;5053820;28;20040;-48
2022/08/07 07:29:16;;;;;;;3.08;2.50;;;26.50;99.90;;;;;;5068096;28;20098;-52
2022/08/07 07:31:48;;;;;;;6.35;2.60;;;26.70;99.90;;;;;;5056888;28;20115;-54
2022/08/07 07:34:21;;;;;;;4.10;2.70;;;26.80;99.90;;;;;;5056067;28;20096;-53
2022/08/07 07:36:49;;;;;;;4.88;2.65;;;26.90;99.90;;;;;;5060177;28;20039;-52
2022/08/07 07:39:16;;;;;;;3.63;2.35;;;26.80;99.90;;;;;;5051987;28;20028;-52
2022/08/07 07:41:46;;;;;;;5.45;2.83;;;26.90;99.90;;;;;;5067101;28;20737;-51
2022/08/07 07:44:14;;;;;;;4.35;2.50;;;27.00;99.90;;;;;;5059390;28;20041;-54
2022/08/07 07:46:41;;;;;;;3.95;2.50;;;27.00;99.90;;;;;;5057939;28;20117;-52
2022/08/07 07:49:08;;;;;;;5.03;2.85;;;;;;;;;;5044070;28;20509;-52
2022/08/07 07:51:36;;;;;;;2.88;2.35;;;27.30;99.90;;;;;;5058674;28;20353;-51
2022/08/07 07:54:06;;;;;;;2.83;2.50;;;27.20;99.90;;;;;;5060814;28;20045;-52
2022/08/07 07:56:34;;;;;;;4.43;2.83;;;27.10;99.90;;;;;;5057604;28;20704;-53
2022/08/07 07:59:01;;;;;;;10.48;3.22;;;27.10;99.90;;;;;;5059685;28;20040;-52
2022/08/07 08:01:28;;;;;;;4.20;2.40;;;;;;;;;;5049738;28;20029;-51
2022/08/07 08:03:56;;;;;;;2.75;2.50;;;27.30;99.90;;;;;;5048149;28;20041;-53
2022/08/07 08:06:25;;;;;;;3.20;2.80;;;27.20;99.90;;;;;;5064749;28;20041;-53
2022/08/07 08:08:52;;;;;;;5.13;2.72;;;27.40;99.90;;;;;;5047762;28;20515;-52
2022/08/07 08:11:19;;;;;;;6.43;2.50;;;27.60;99.90;;;;;;5047250;28;20494;-52
2022/08/07 08:13:47;;;;;;;3.53;2.80;;;27.60;99.90;;;;;;5047206;28;20419;-53
2022/08/07 08:16:20;;;;;;;4.47;2.75;;;27.50;99.90;;;;;;5052397;28;20380;-54
2022/08/07 08:18:49;;;;;;;8.40;3.95;;;27.50;99.90;;;;;;5059577;28;20112;-51
2022/08/07 08:27:09;;;;;;;3.83;2.60;;;;;;;;;;4989264;28;20680;-53
2022/08/07 08:29:43;;;;;;;8.02;3.63;;;27.90;99.90;;;;;;4948877;28;20043;-52
2022/08/07 08:32:14;;;;;;;3.75;2.97;;;28.10;99.90;;;;;;4962100;28;20085;-54
2022/08/07 08:34:41;;;;;;;6.93;3.00;;;27.80;99.90;;;;;;4981156;28;20086;-57
2022/08/07 08:37:09;;;;;;;4.70;2.58;;;27.90;99.90;;;;;;4979955;28;20027;-61
2022/08/07 08:39:37;;;;;;;11.30;5.82;;;27.90;99.90;;;;;;4987129;28;20042;-54
2022/08/07 08:42:04;;;;;;;12.02;3.50;;;;;;;;;;4949938;28;20043;-55
2022/08/07 08:44:39;;;;;;;5.85;3.10;;;;;;;;;;4984158;28;20046;-54
2022/08/07 08:47:14;;;;;;;9.85;3.70;;;;;;;;;;4983712;28;20050;-53
2022/08/07 08:49:44;;;;;;;10.27;4.03;;;;;;;;;;4981384;28;20129;-55
2022/08/07 08:52:25;;;;;;;9.23;3.90;;;;;;;;;;4987133;28;20067;-56
2022/08/07 08:55:05;;;;;;;6.55;3.20;;;;;;;;;;4982070;28;20051;-60
2022/08/07 08:57:51;;;;;;;7.82;3.35;;;28.90;99.90;;;;;;4983513;28;20039;-54
2022/08/07 09:00:17;;;;;;;3.33;3.00;;;28.80;99.90;;;;;;4989198;28;20111;-53
2022/08/07 09:02:50;;;;;;;6.28;3.00;;;28.90;99.90;;;;;;5022208;28;20534;-63
2022/08/07 09:05:23;;;;;;;3.33;2.90;;;;;;;;;;5031261;28;20450;-55
2022/08/07 09:07:57;;;;;;;4.00;2.97;;;28.80;99.90;;;;;;5051331;28;20064;-61
2022/08/07 09:10:26;;;;;;;5.43;3.30;;;29.00;99.90;;;;;;5050175;28;20400;-59
2022/08/07 09:13:11;;;;;;;6.47;3.03;;;29.10;99.90;;;;;;5047799;28;20104;-57
2022/08/07 09:15:42;;;;;;;4.32;2.97;;;29.20;99.90;;;;;;5047048;28;20088;-62
2022/08/07 09:18:35;;;;;;;6.60;2.97;;;;;;;;;;5052295;28;20100;-54
2022/08/07 09:21:10;;;;;;;3.30;3.00;;;;;;;;;;5027966;28;20569;-60
2022/08/07 09:23:44;;;;;;;4.53;2.90;;;29.50;99.90;;;;;;5028642;28;20049;-60
2022/08/07 09:26:19;;;;;;;3.13;2.83;;;29.60;99.90;;;;;;5032296;28;20137;-57
2022/08/07 09:28:51;;;;;;;3.75;3.38;;;;;;;;;;5029979;28;20048;-58
2022/08/07 09:31:31;;;;;;;4.47;2.95;;;29.80;99.90;;;;;;5029499;28;20049;-60
2022/08/07 09:34:15;;;;;;;4.82;3.00;;;29.70;99.70;;;;;;5032157;28;20037;-54
2022/08/07 09:36:57;;;;;;;5.45;2.80;;;29.80;99.80;;;;;;5027823;28;20439;-58
2022/08/07 09:39:50;;;;;;;3.67;2.72;;;30.20;99.30;;;;;;5030496;28;20040;-56
2022/08/07 09:42:16;;;;;;;7.38;3.08;;;;;;;;;;5031398;28;20029;-53
2022/08/07 09:44:56;;;;;;;4.25;3.10;;;;;;;;;;5034719;28;20061;-59
2022/08/07 09:47:22;;;;;;;3.60;3.10;;;;;;;;;;5038724;28;20420;-58
2022/08/07 09:49:48;;;;;;;4.05;2.85;;;;;;;;;;5038690;28;20083;-58
2022/08/07 09:52:16;;;;;;;3.15;2.40;;;30.40;99.90;;;;;;5033121;28;20057;-56
2022/08/07 09:54:54;;;;;;;10.20;2.90;;;30.50;99.90;;;;;;5029297;28;20036;-60
2022/08/07 09:57:57;;;;;;;4.28;3.15;;;30.60;99.90;;;;;;5037586;28;20045;-55
2022/08/07 10:00:36;;;;;;;4.90;3.15;;;30.60;99.90;;;;;;5050966;28;20032;-55
2022/08/07 10:03:35;;;;;;;9.23;3.15;;;30.60;99.90;;;;;;5057772;28;20017;-56
2022/08/07 10:06:22;;;;;;;5.25;3.40;;;30.50;99.90;;;;;;5051564;28;20035;-54
2022/08/07 10:09:26;;;;;;;4.70;2.85;;;30.30;99.90;;;;;;5052094;28;20547;-56
2022/08/07 10:12:11;;;;;;;4.50;2.50;;;;;;;;;;5050970;28;20045;-60
2022/08/07 10:14:40;;;;;;;4.70;2.88;;;;;;;;;;5058881;28;20078;-59
2022/08/07 10:17:50;;;;;;;4.75;3.20;;;31.00;97.30;;;;;;5049054;28;20419;-59
2022/08/07 10:20:46;;;;;;;5.53;3.50;;;30.80;97.50;;;;;;4957093;28;20526;-62
2022/08/07 10:23:30;;;;;;;4.47;3.10;;;30.50;97.90;;;;;;4999285;28;20047;-57
2022/08/07 10:26:16;;;;;;;4.07;2.70;;;30.60;97.50;;;;;;5002287;28;20739;-57
2022/08/07 10:29:07;;;;;;;5.43;3.22;;;30.60;97.40;;;;;;5003478;28;20080;-58
2022/08/07 10:32:05;;;;;;;3.70;3.13;;;30.80;97.50;;;;;;4997561;28;20500;-63
2022/08/07 10:34:52;;;;;;;7.80;3.08;;;31.20;97.40;;;;;;5005815;28;20119;-58
2022/08/07 10:37:29;;;;;;;4.35;3.30;;;30.80;97.20;;;;;;5003183;28;20157;-62
2022/08/07 10:40:37;;;;;;;3.70;3.30;;;30.80;97.10;;;;;;4964751;28;20035;-59
2022/08/07 10:43:24;;;;;;;5.22;3.08;;;31.10;96.80;;;;;;4898952;29;20393;-52
2022/08/07 10:45:58;;;;;;;6.43;3.45;;;;;;;;;;4898175;29;20403;-55
2022/08/07 10:48:30;;;;;;;4.68;3.40;;;;;;;;;;4893066;29;20385;-57
2022/08/07 10:50:59;;;;;;;6.28;3.30;;;;;;;;;;4897545;29;20052;-58
2022/08/07 10:53:35;;;;;;;5.47;3.50;;;31.90;99.90;;;;;;4900011;29;20040;-54
2022/08/07 10:56:19;;;;;;;4.18;3.25;;;;;;;;;;4926209;29;20053;-57
2022/08/07 10:58:53;;;;;;;4.72;3.03;;;;;;;;;;4945899;29;20042;-57
2022/08/07 11:01:36;;;;;;;5.72;3.53;;;32.10;95.30;;;;;;4950992;28;20272;-57
2022/08/07 11:04:23;;;;;;;3.60;3.25;;;32.00;96.00;;;;;;4920636;29;20051;-63
2022/08/07 11:07:05;;;;;;;3.08;2.78;;;31.90;95.60;;;;;;4949961;29;20035;-59
2022/08/07 11:09:38;;;;;;;4.75;3.70;;;31.80;95.40;;;;;;4952051;29;20691;-58
2022/08/07 11:12:10;;;;;;;5.88;4.20;;;;;;;;;;4989637;28;20512;-64
2022/08/07 11:14:41;;;;;;;6.35;3.95;;;;;;;;;;4986584;28;20063;-60
2022/08/07 11:17:11;;;;;;;4.30;3.80;;;32.00;97.30;;;;;;5035495;28;20041;-58
2022/08/07 11:19:44;;;;;;;9.23;3.10;;;;;;;;;;5056902;28;20078;-63
2022/08/07 11:22:14;;;;;;;4.10;3.72;;;;;;;;;;5052190;28;20028;-52
2022/08/07 11:25:13;;;;;;;6.65;3.85;;;;;;;;;;5056726;28;20033;-58
2022/08/07 11:27:39;;;;;;;6.07;3.58;;;;;;;;;;4990753;28;20511;-61
2022/08/07 11:30:06;;;;;;;4.80;3.53;;;;;;;;;;4991086;28;20042;-55
2022/08/07 11:32:51;;;;;;;4.55;3.83;;;;;;;;;;4988881;28;20554;-59
2022/08/07 11:35:21;;;;;;;6.32;4.00;;;;;;;;;;4990459;28;20088;-55
2022/08/07 11:37:55;;;;;;;4.90;3.90;;;;;;;;;;4990613;28;20046;-55
2022/08/07 11:40:42;;;;;;;3.80;3.50;;;32.60;99.20;;;;;;4990960;28;20178;-61
2022/08/07 11:43:08;;;;;;;5.97;3.80;;;;;;;;;;4990351;28;20426;-60
2022/08/07 11:46:20;;;;;;;4.85;4.05;;;32.80;99.90;;;;;;4990351;28;20029;-57
2022/08/07 11:48:52;;;;;;;6.35;3.42;;;32.70;99.90;;;;;;4990458;28;20089;-62
2022/08/07 11:51:32;;;;;;;16.05;4.10;;;32.00;94.30;;;;;;4990165;28;20497;-56
2022/08/07 11:54:28;;;;;;;7.03;3.53;;;31.90;95.00;;;;;;4986497;28;20404;-50
2022/08/07 11:57:17;;;;;;;4.18;3.53;;;31.90;94.70;;;;;;4989370;28;20417;-60
2022/08/07 11:59:55;;;;;;;4.38;3.42;;;31.80;94.70;;;;;;4987513;28;20093;-53
2022/08/07 12:02:58;;;;;;;4.05;3.65;;;31.90;94.80;;;;;;4995458;28;20037;-54
2022/08/07 12:05:42;;;;;;;4.20;3.80;;;32.20;95.00;;;;;;5054109;28;20035;-53
2022/08/07 12:08:24;;;;;;;5.55;4.03;;;32.40;94.70;;;;;;5050198;28;20044;-53
2022/08/07 12:11:09;;;;;;;4.30;3.90;;;;;;;;;;5055638;28;20049;-49
2022/08/07 12:13:46;;;;;;;7.05;4.97;;;32.70;94.60;;;;;;5056698;28;20128;-49
2022/08/07 12:16:20;;;;;;;8.13;4.00;;;32.90;94.10;;;;;;5056917;28;20021;-51
2022/08/07 12:19:16;;;;;;;5.53;3.53;;;;;;;;;;5048287;28;20451;-53
2022/08/07 12:22:06;;;;;;;4.70;4.30;;;32.60;93.60;;;;;;5043987;28;20037;-53
2022/08/07 12:24:32;;;;;;;4.68;3.95;;;32.80;93.90;;;;;;5052522;28;20037;-51
2022/08/07 12:27:18;;;;;;;6.43;4.15;;;;;;;;;;5052363;28;20045;-53
2022/08/07 12:29:56;;;;;;;5.63;3.80;;;;;;;;;;5051348;28;20723;-50
2022/08/07 12:32:25;;;;;;;7.75;3.80;;;;;;;;;;5046507;28;20033;-54
2022/08/07 12:34:52;;;;;;;5.97;3.95;;;;;;;;;;5046071;28;20025;-52
2022/08/07 12:37:18;;;;;;;8.20;4.10;;;;;;;;;;5050427;28;20057;-53
2022/08/07 12:39:45;;;;;;;4.10;3.40;;;;;;;;;;5054372;28;20064;-53
2022/08/07 12:42:12;;;;;;;5.82;4.15;;;;;;;;;;5047513;28;20054;-52
2022/08/07 12:44:39;;;;;;;4.65;3.90;;;;;;;;;;5053803;28;20049;-53
2022/08/07 12:47:08;;;;;;;4.47;4.07;;;;;;;;;;5053466;28;20499;-54
2022/08/07 12:49:58;;;;;;;4.90;4.20;;;34.80;95.60;;;;;;5048014;28;20029;-55
2022/08/07 12:52:47;;;;;;;7.18;3.97;;;34.00;92.20;;;;;;5053477;28;20043;-54
2022/08/07 12:55:19;;;;;;;4.68;4.20;;;33.90;92.30;;;;;;5057205;28;20338;-54
2022/08/07 12:57:46;;;;;;;6.50;4.22;;;34.00;92.40;;;;;;5050897;28;20420;-52
2022/08/07 13:00:12;;;;;;;5.13;4.07;;;34.50;92.00;;;;;;5050249;28;20033;-57
2022/08/07 13:02:46;;;;;;;5.40;3.53;;;;;;;;;;5051551;28;20036;-56
2022/08/07 13:05:15;;;;;;;6.65;3.60;;;;;;;;;;5057476;28;20076;-54
2022/08/07 13:20:50;;;;;;;5.07;3.60;;;35.10;91.40;;;;;;5076779;27;20423;-56
2022/08/07 13:23:28;;;;;;;6.93;4.22;;;35.40;97.20;;;;;;5055730;28;20075;-54
2022/08/07 13:26:01;;;;;;;6.00;4.20;;;35.10;96.50;;;;;;5058601;28;20375;-52
2022/08/07 13:28:30;;;;;;;4.47;3.83;;;;;;;;;;5056731;28;20039;-54
2022/08/07 13:31:04;;;;;;;5.68;3.90;;;35.00;94.60;;;;;;5063372;28;20056;-48
2022/08/07 13:33:30;;;;;;;5.20;3.97;;;34.10;90.60;;;;;;5038632;28;20033;-49
2022/08/07 13:36:02;;;;;;;5.32;3.88;;;34.10;91.00;;;;;;5039928;28;20591;-49
2022/08/07 13:38:55;;;;;;;5.10;4.00;;;34.20;90.90;;;;;;5049151;28;20033;-52
2022/08/07 13:41:38;;;;;;;6.65;3.88;;;34.30;91.20;;;;;;5003553;28;20041;-52
2022/08/07 13:44:05;;;;;;;8.48;4.82;;;34.20;90.80;;;;;;5023001;28;20037;-52
2022/08/07 13:46:37;;;;;;;4.45;3.78;;;34.40;90.80;;;;;;5040044;28;20083;-57
2022/08/07 13:49:05;;;;;;;4.40;3.63;;;35.00;90.90;;;;;;5041538;28;20056;-54
2022/08/07 13:51:35;;;;;;;4.40;3.90;;;34.60;90.30;;;;;;5038185;28;20057;-57
2022/08/07 13:54:08;;;;;;;7.97;4.10;;;34.90;90.50;;;;;;5007944;28;20068;-52
2022/08/07 13:56:38;;;;;;;10.23;3.88;;;34.50;90.40;;;;;;5025536;28;20432;-53
2022/08/07 13:59:20;;;;;;;6.07;4.25;;;34.40;90.50;;;;;;5034681;28;20121;-52
2022/08/07 14:01:51;;;;;;;7.13;4.03;;;34.40;90.70;;;;;;5043323;28;20040;-54
2022/08/07 14:04:19;;;;;;;11.98;4.53;;;34.60;90.50;;;;;;5005763;28;20503;-53
2022/08/07 14:06:47;;;;;;;14.75;4.07;;;34.90;90.30;;;;;;5058595;28;20091;-56
2022/08/07 14:09:27;;;;;;;6.97;4.00;;;34.90;90.40;;;;;;5057529;28;20060;-55
2022/08/07 14:12:01;;;;;;;4.07;3.75;;;35.20;90.50;;;;;;5014111;28;20037;-56
2022/08/07 14:14:37;;;;;;;4.55;3.90;;;34.70;90.20;;;;;;5010947;28;20077;-55
2022/08/07 14:17:04;;;;;;;4.32;3.70;;;34.60;90.30;;;;;;5017049;28;20495;-58
2022/08/07 14:19:43;;;;;;;5.63;3.85;;;34.70;90.20;;;;;;5016933;28;20540;-57
2022/08/07 14:22:14;;;;;;;4.35;3.53;;;34.70;90.00;;;;;;5002576;28;20093;-55
2022/08/07 14:24:44;;;;;;;5.35;3.50;;;34.60;90.20;;;;;;5001385;28;20042;-57
2022/08/07 14:27:13;;;;;;;5.15;4.22;;;34.80;90.30;;;;;;4999182;28;20131;-56
2022/08/07 14:29:53;;;;;;;4.88;3.60;;;34.90;90.30;;;;;;5002766;28;20050;-53
2022/08/07 14:32:20;;;;;;;4.63;3.80;;;34.80;90.30;;;;;;5000602;28;20045;-60
2022/08/07 14:34:48;;;;;;;4.97;4.10;;;34.70;90.00;;;;;;5002941;28;20551;-65
2022/08/07 14:37:17;;;;;;;6.93;4.28;;;35.00;90.20;;;;;;5007750;28;20057;-58
2022/08/07 14:39:45;;;;;;;5.93;3.85;;;35.00;89.50;;;;;;4978078;28;20044;-61
2022/08/07 14:42:13;;;;;;;6.13;4.15;;;35.00;89.90;;;;;;5016300;28;20562;-71
2022/08/07 14:44:48;;;;;;;6.53;3.53;;;35.20;89.30;;;;;;5008033;28;20038;-62
2022/08/07 14:47:18;;;;;;;4.22;3.75;;;35.50;89.60;;;;;;4981833;28;20456;-61
2022/08/07 14:49:46;;;;;;;4.28;3.88;;;35.50;89.40;;;;;;5020125;28;20050;-65
2022/08/07 14:52:13;;;;;;;7.82;4.47;;;35.10;88.80;;;;;;5020245;28;20038;-56
2022/08/07 14:54:42;;;;;;;5.25;3.83;;;34.70;89.80;;;;;;5017188;28;20092;-57
2022/08/07 14:57:11;;;;;;;8.15;3.88;;;34.80;89.50;;;;;;4992418;28;20034;-67
2022/08/07 14:59:40;;;;;;;7.45;3.75;;;34.70;89.70;;;;;;5006748;28;20136;-61
2022/08/07 15:02:14;;;;;;;6.13;4.00;;;34.80;89.70;;;;;;5018588;28;20087;-51
2022/08/07 15:04:45;;;;;;;8.15;3.88;;;35.10;90.30;;;;;;5022000;28;20041;-57
2022/08/07 15:07:17;;;;;;;4.63;4.10;;;35.00;89.80;;;;;;4995308;28;20485;-60
2022/08/07 15:09:46;;;;;;;8.00;3.88;;;35.00;89.50;;;;;;4976161;28;20145;-58
2022/08/07 15:12:15;;;;;;;7.00;4.10;;;34.90;89.30;;;;;;5015258;28;20125;-51
2022/08/07 15:14:49;;;;;;;7.28;4.25;;;35.00;89.20;;;;;;4977032;28;20608;-55
2022/08/07 15:17:19;;;;;;;5.13;3.88;;;35.00;89.00;;;;;;5042246;28;20030;-51
2022/08/07 15:19:55;;;;;;;5.70;3.83;;;35.10;89.10;;;;;;5044625;28;20041;-56
2022/08/07 15:22:27;;;;;;;7.03;4.00;;;35.20;89.60;;;;;;5042377;28;20060;-56
2022/08/07 15:24:55;;;;;;;6.38;4.03;;;35.00;89.40;;;;;;5045569;28;20049;-60
2022/08/07 15:27:23;;;;;;;6.43;4.45;;;34.80;89.30;;;;;;5048808;28;20048;-57
2022/08/07 15:29:54;;;;;;;4.80;4.05;;;35.00;89.50;;;;;;5044648;28;20044;-56